Time;durP1;ratioP1;P1;durP2;ratioP2;P2;SDS_P1;SDS_P2;PMS_P1;PMS_P2;Temp;Humidity;BMP_temperature;BMP_pressure;BME280_temperature;BME280_humidity;BME280_pressure;Samples;Min_cycle;Max_cycle;Signal;HPM_P1;HPM_P2
2022/05/04 00:00:01;;;;;;;8.95;2.25;;;;;;;;;;5077351;28;20045;-59
2022/05/04 00:02:27;;;;;;;13.18;2.83;;;;;;;;;;5067882;28;20094;-59
2022/05/04 00:04:53;;;;;;;9.27;2.22;;;;;;;;;;5067681;28;20072;-60
2022/05/04 00:07:19;;;;;;;10.48;2.28;;;;;;;;;;5069875;28;20049;-59
2022/05/04 00:09:45;;;;;;;7.50;1.77;;;;;;;;;;5075398;28;20243;-60
2022/05/04 00:12:11;;;;;;;7.03;1.80;;;;;;;;;;5087854;28;20116;-59
2022/05/04 00:14:37;;;;;;;18.48;2.80;;;;;;;;;;5087809;28;20056;-59
2022/05/04 00:17:04;;;;;;;8.13;2.72;;;;;;;;;;5085881;28;20044;-59
2022/05/04 00:19:30;;;;;;;10.63;2.63;;;;;;;;;;5067488;28;20120;-60
2022/05/04 00:21:56;;;;;;;11.05;2.85;;;;;;;;;;5068703;28;20037;-59
2022/05/04 00:24:22;;;;;;;12.20;2.90;;;;;;;;;;5067254;28;20041;-59
2022/05/04 00:26:48;;;;;;;17.23;3.13;;;;;;;;;;5067744;28;20041;-59
2022/05/04 00:29:14;;;;;;;15.43;2.60;;;;;;;;;;5067737;28;20480;-59
2022/05/04 00:31:40;;;;;;;13.70;2.63;;;;;;;;;;5088088;28;20124;-61
2022/05/04 00:34:07;;;;;;;10.77;2.30;;;;;;;;;;5083377;28;20048;-60
2022/05/04 00:36:33;;;;;;;7.00;1.98;;;;;;;;;;5087347;28;20044;-60
2022/05/04 00:38:59;;;;;;;13.65;3.65;;;;;;;;;;5085891;28;20076;-60
2022/05/04 00:41:26;;;;;;;18.80;3.08;;;;;;;;;;5078547;28;20057;-59
2022/05/04 00:43:55;;;;;;;20.30;2.53;;;;;;;;;;5066900;28;20052;-59
2022/05/04 00:46:23;;;;;;;10.65;2.78;;;;;;;;;;5067206;28;20053;-59
2022/05/04 00:48:49;;;;;;;9.50;2.00;;;;;;;;;;5066984;28;20036;-60
2022/05/04 00:51:15;;;;;;;10.00;2.50;;;;;;;;;;5070211;28;20726;-59
2022/05/04 00:53:42;;;;;;;9.55;2.13;;;;;;;;;;5087013;28;20047;-59
2022/05/04 00:56:09;;;;;;;13.65;2.75;;;;;;;;;;5087155;28;20075;-59
2022/05/04 00:58:54;;;;;;;12.30;2.85;;;;;;;;;;5087044;28;20127;-59
2022/05/04 01:01:21;;;;;;;14.95;3.08;;;;;;;;;;5080650;28;20125;-59
2022/05/04 01:03:47;;;;;;;8.13;2.00;;;;;;;;;;5066469;28;20053;-59
2022/05/04 01:06:13;;;;;;;14.00;2.50;;;;;;;;;;5066717;28;20045;-59
2022/05/04 01:08:39;;;;;;;16.42;2.90;;;;;;;;;;5099358;28;20045;-60
2022/05/04 01:11:05;;;;;;;8.73;1.95;;;;;;;;;;5070120;28;20070;-59
2022/05/04 01:13:31;;;;;;;13.00;2.40;;;;;;;;;;5086577;28;20123;-59
2022/05/04 01:15:57;;;;;;;6.63;2.17;;;;;;;;;;5084989;28;20111;-59
2022/05/04 01:18:24;;;;;;;12.32;2.63;;;;;;;;;;5086509;28;20099;-60
2022/05/04 01:20:50;;;;;;;11.63;2.50;;;;;;;;;;5084680;28;20050;-59
2022/05/04 01:23:16;;;;;;;5.82;1.83;;;;;;;;;;5084881;28;20059;-59
2022/05/04 01:25:43;;;;;;;14.70;3.00;;;;;;;;;;5069396;28;20041;-59
2022/05/04 01:28:09;;;;;;;10.95;2.75;;;;;;;;;;5066406;28;20088;-60
2022/05/04 01:30:36;;;;;;;9.55;2.78;;;;;;;;;;5065146;28;20286;-59
2022/05/04 01:33:02;;;;;;;6.40;1.90;;;;;;;;;;5085417;28;20052;-60
2022/05/04 01:35:29;;;;;;;19.90;3.13;;;;;;;;;;5085984;28;20098;-60
2022/05/04 01:37:55;;;;;;;10.23;2.38;;;;;;;;;;5069028;28;20123;-60
2022/05/04 01:40:21;;;;;;;10.93;2.72;;;;;;;;;;5066151;28;20048;-59
2022/05/04 01:42:47;;;;;;;11.13;2.47;;;;;;;;;;5083023;28;20729;-59
2022/05/04 01:45:13;;;;;;;14.23;2.90;;;;;;;;;;5085335;28;20057;-59
2022/05/04 01:47:39;;;;;;;12.52;2.65;;;;;;;;;;5085934;28;20058;-59
2022/05/04 01:50:06;;;;;;;10.63;2.33;;;;;;;;;;5085784;28;20048;-60
2022/05/04 01:52:32;;;;;;;10.95;2.97;;;;;;;;;;5070843;28;20049;-61
2022/05/04 01:55:01;;;;;;;12.63;2.60;;;;;;;;;;5064814;28;20084;-60
2022/05/04 01:57:27;;;;;;;9.25;2.42;;;;;;;;;;5064788;28;20053;-60
2022/05/04 01:59:54;;;;;;;9.32;2.83;;;;;;;;;;5065931;28;20045;-59
2022/05/04 02:02:20;;;;;;;11.32;3.10;;;;;;;;;;5078385;28;20460;-59
2022/05/04 02:04:46;;;;;;;12.02;2.88;;;;;;;;;;5085337;28;20049;-59
2022/05/04 02:07:12;;;;;;;11.10;2.92;;;;;;;;;;5085778;28;20047;-60
2022/05/04 02:09:40;;;;;;;9.65;3.47;;;;;;;;;;5085546;28;20048;-59
2022/05/04 02:12:07;;;;;;;7.97;2.22;;;;;;;;;;5073272;28;20052;-59
2022/05/04 02:14:33;;;;;;;9.38;2.25;;;;;;;;;;5064101;28;20080;-60
2022/05/04 02:16:59;;;;;;;14.93;2.70;;;;;;;;;;5065479;28;20041;-60
2022/05/04 02:19:26;;;;;;;14.25;2.65;;;;;;;;;;5065066;28;20045;-60
2022/05/04 02:21:52;;;;;;;15.98;4.53;;;;;;;;;;5073841;28;20131;-58
2022/05/04 02:24:18;;;;;;;10.60;2.72;;;;;;;;;;5085223;28;20077;-59
2022/05/04 02:26:44;;;;;;;7.10;2.58;;;;;;;;;;5085387;28;20076;-59
2022/05/04 02:29:11;;;;;;;8.82;2.58;;;;;;;;;;5082328;28;20091;-59
2022/05/04 02:31:37;;;;;;;12.40;3.67;;;;;;;;;;5084994;28;20045;-59
2022/05/04 02:34:03;;;;;;;12.43;2.55;;;;;;;;;;5083495;28;20106;-59
2022/05/04 02:39:13;;;;;;;8.88;2.33;;;;;;;;;;5069456;28;20076;-60
2022/05/04 02:41:40;;;;;;;8.98;2.58;;;;;;;;;;5084084;28;20104;-59
2022/05/04 02:44:07;;;;;;;9.73;2.40;;;;;;;;;;5084814;28;20048;-60
2022/05/04 02:46:33;;;;;;;9.63;2.50;;;;;;;;;;5084954;28;20107;-59
2022/05/04 02:48:59;;;;;;;16.17;2.67;;;;;;;;;;5068678;28;20101;-59
2022/05/04 02:51:25;;;;;;;13.20;3.38;;;;;;;;;;5064975;28;20067;-59
2022/05/04 02:53:52;;;;;;;12.20;2.72;;;;;;;;;;5080119;28;20053;-59
2022/05/04 02:56:18;;;;;;;14.68;2.80;;;;;;;;;;5064796;28;20123;-59
2022/05/04 02:58:45;;;;;;;12.00;3.22;;;;;;;;;;5077355;28;20055;-61
2022/05/04 03:03:57;;;;;;;10.20;2.03;;;;;;;;;;5084461;28;20109;-59
2022/05/04 03:06:24;;;;;;;18.40;2.67;;;;;;;;;;5083514;28;20500;-59
2022/05/04 03:08:50;;;;;;;7.93;2.03;;;;;;;;;;5083020;28;20127;-59
2022/05/04 03:14:02;;;;;;;12.35;3.00;;;;;;;;;;5084813;28;20059;-59
2022/05/04 03:16:28;;;;;;;14.65;2.28;;;;;;;;;;5083481;28;20083;-59
2022/05/04 03:18:54;;;;;;;10.30;3.00;;;;;;;;;;5070441;28;20475;-59
2022/05/04 03:21:20;;;;;;;7.50;2.10;;;;;;;;;;5064710;28;20049;-59
2022/05/04 03:23:47;;;;;;;9.57;2.00;;;;;;;;;;5064649;28;20060;-59
2022/05/04 03:26:13;;;;;;;8.48;2.15;;;;;;;;;;5063323;28;20124;-59
2022/05/04 03:28:39;;;;;;;9.95;2.13;;;;;;;;;;5080303;28;20053;-59
2022/05/04 03:31:05;;;;;;;6.88;2.60;;;;;;;;;;5064459;28;20041;-59
2022/05/04 03:33:31;;;;;;;6.55;2.30;;;;;;;;;;5062995;28;20057;-60
2022/05/04 03:35:57;;;;;;;9.90;2.90;;;;;;;;;;5063258;28;20045;-59
2022/05/04 03:38:23;;;;;;;12.07;2.45;;;;;;;;;;5071884;28;20049;-59
2022/05/04 03:40:49;;;;;;;9.48;2.60;;;;;;;;;;5084212;28;20049;-59
2022/05/04 03:43:16;;;;;;;10.38;2.78;;;;;;;;;;5084272;28;20051;-59
2022/05/04 03:45:42;;;;;;;5.95;2.25;;;;;;;;;;5084258;28;20063;-59
2022/05/04 03:48:08;;;;;;;14.82;3.05;;;;;;;;;;5077284;28;20057;-59
2022/05/04 03:50:34;;;;;;;9.70;2.55;;;;;;;;;;5064148;28;20121;-59
2022/05/04 03:53:00;;;;;;;10.43;2.47;;;;;;;;;;5064286;28;20057;-59
2022/05/04 03:55:26;;;;;;;9.07;2.70;;;;;;;;;;5064098;28;20040;-60
2022/05/04 03:57:53;;;;;;;8.60;2.13;;;;;;;;;;5068347;28;20040;-60
2022/05/04 04:00:20;;;;;;;12.27;2.47;;;;;;;;;;5084300;28;20097;-59
2022/05/04 04:02:46;;;;;;;15.32;2.65;;;;;;;;;;5082676;28;20048;-59
2022/05/04 04:05:12;;;;;;;9.40;2.60;;;;;;;;;;5116829;28;20044;-59
2022/05/04 04:07:39;;;;;;;9.95;2.63;;;;;;;;;;5081651;28;20127;-59
2022/05/04 04:10:05;;;;;;;13.60;2.53;;;;;;;;;;5065377;28;20053;-60
2022/05/04 04:12:32;;;;;;;12.85;3.70;;;;;;;;;;5067864;28;20040;-60
2022/05/04 04:14:58;;;;;;;5.90;1.98;;;;;;;;;;5066510;28;20128;-61
2022/05/04 04:17:24;;;;;;;9.27;2.10;;;;;;;;;;5067515;28;20559;-60
2022/05/04 04:21:50;;;;;;;12.18;3.10;;;;;;;;;;5087475;28;20041;-58
2022/05/04 04:22:36;;;;;;;9.45;2.03;;;;;;;;;;5087736;28;20041;-60
2022/05/04 04:25:02;;;;;;;8.45;2.20;;;;;;;;;;5087567;28;20079;-59
2022/05/04 04:27:32;;;;;;;10.73;2.10;;;;;;;;;;5086960;28;20174;-59
2022/05/04 04:29:58;;;;;;;11.98;2.85;;;;;;;;;;5067615;28;20048;-61
2022/05/04 04:32:24;;;;;;;12.73;3.10;;;;;;;;;;5082072;28;20059;-60
2022/05/04 04:34:51;;;;;;;10.30;2.28;;;;;;;;;;5066074;28;20053;-59
2022/05/04 04:37:17;;;;;;;8.40;2.03;;;;;;;;;;5068502;28;20592;-60
2022/05/04 04:39:43;;;;;;;8.35;2.00;;;;;;;;;;5067407;28;20040;-60
2022/05/04 04:42:12;;;;;;;14.57;2.42;;;;;;;;;;5067237;28;20049;-60
2022/05/04 04:44:38;;;;;;;13.15;2.25;;;;;;;;;;5065775;28;20057;-59
2022/05/04 04:47:05;;;;;;;6.00;2.00;;;;;;;;;;5078595;28;20045;-60
2022/05/04 04:49:31;;;;;;;8.68;2.50;;;;;;;;;;5087089;28;20106;-59
2022/05/04 04:51:57;;;;;;;11.07;2.17;;;;;;;;;;5084814;28;20098;-60
2022/05/04 04:54:23;;;;;;;6.93;1.67;;;;;;;;;;5087161;28;20082;-61
2022/05/04 04:56:49;;;;;;;11.02;1.98;;;;;;;;;;5085847;28;20044;-59
2022/05/04 04:59:15;;;;;;;7.97;2.05;;;;;;;;;;5085711;28;20070;-60
2022/05/04 05:01:41;;;;;;;6.50;2.10;;;;;;;;;;5085283;28;20249;-59
2022/05/04 05:04:07;;;;;;;8.68;3.38;;;;;;;;;;5086330;28;20047;-60
2022/05/04 05:06:33;;;;;;;10.05;2.05;;;;;;;;;;5086697;28;20043;-61
2022/05/04 05:08:59;;;;;;;5.53;2.00;;;;;;;;;;5085653;28;20071;-60
2022/05/04 05:11:26;;;;;;;11.82;2.42;;;;;;;;;;5081583;28;20049;-59
2022/05/04 05:16:36;;;;;;;10.50;2.33;;;;;;;;;;5066614;28;20090;-59
2022/05/04 05:19:02;;;;;;;6.95;2.15;;;;;;;;;;5066423;28;20075;-60
2022/05/04 05:21:29;;;;;;;10.43;2.35;;;;;;;;;;5070174;28;20105;-60
2022/05/04 05:23:55;;;;;;;9.82;2.30;;;;;;;;;;5086484;28;20261;-60
2022/05/04 05:26:21;;;;;;;8.30;2.58;;;;;;;;;;5086492;28;20041;-59
2022/05/04 05:28:47;;;;;;;7.63;2.17;;;;;;;;;;5086548;28;20049;-60
2022/05/04 05:31:13;;;;;;;10.57;2.28;;;;;;;;;;5082469;28;20134;-60
2022/05/04 05:33:40;;;;;;;8.35;2.30;;;;;;;;;;5066007;28;20049;-60
2022/05/04 05:36:07;;;;;;;15.95;2.50;;;;;;;;;;5066296;28;20104;-60
2022/05/04 05:38:33;;;;;;;12.45;2.25;;;;;;;;;;5065241;28;20503;-60
2022/05/04 05:41:01;;;;;;;7.68;2.42;;;;;;;;;;5083840;28;20115;-60
2022/05/04 05:43:28;;;;;;;;;;;;;;;;;;5086388;28;20049;-59
2022/05/04 05:45:54;;;;;;;6.65;2.20;;;;;;;;;;5084995;28;19955;-59
2022/05/04 05:48:20;;;;;;;6.28;2.15;;;;;;;;;;5082557;28;20048;-60
2022/05/04 05:50:47;;;;;;;13.38;2.53;;;;;;;;;;5083678;28;20060;-60
2022/05/04 05:53:17;;;;;;;5.90;1.98;;;;;;;;;;5084227;28;20510;-59
2022/05/04 05:55:43;;;;;;;7.50;1.77;;;;;;;;;;5084557;28;20048;-60
2022/05/04 05:58:12;;;;;;;5.85;1.70;;;;;;;;;;5084038;28;20059;-60
2022/05/04 06:00:38;;;;;;;12.95;2.85;;;;;;;;;;5084595;28;20071;-60
2022/05/04 06:03:04;;;;;;;16.30;2.88;;;;;;;;;;5068883;28;20075;-60
2022/05/04 06:05:30;;;;;;;9.57;2.15;;;;;;;;;;5084821;28;20044;-59
2022/05/04 06:07:56;;;;;;;7.63;1.67;;;;;;;;;;5085742;28;20040;-60
2022/05/04 06:10:22;;;;;;;15.75;2.20;;;;;;;;;;5084862;28;20053;-60
2022/05/04 06:12:48;;;;;;;6.38;1.70;;;;;;;;;;5069983;28;20049;-60
2022/05/04 06:15:15;;;;;;;4.95;1.42;;;;;;;;;;5080080;28;20047;-60
2022/05/04 06:17:42;;;;;;;6.07;1.50;;;;;;;;;;5084960;28;20069;-61
2022/05/04 06:20:08;;;;;;;9.48;1.90;;;;;;;;;;5084094;28;20079;-60
2022/05/04 06:22:34;;;;;;;9.93;2.22;;;;;;;;;;5084125;28;20059;-60
2022/05/04 06:25:00;;;;;;;10.68;2.60;;;;;;;;;;5082777;28;20051;-59
2022/05/04 06:27:29;;;;;;;11.45;2.10;;;;;;;;;;5073479;28;20075;-59
2022/05/04 06:35:25;;;;;;;7.07;1.42;;;;;;;;;;5074480;28;20059;-59
2022/05/04 06:37:51;;;;;;;8.02;1.70;;;;;;;;;;5083629;28;20044;-59
2022/05/04 06:40:17;;;;;;;11.55;1.95;;;;;;;;;;5083479;28;20045;-60
2022/05/04 06:42:44;;;;;;;8.85;2.45;;;;;;;;;;5099430;28;20143;-59
2022/05/04 06:45:10;;;;;;;8.73;2.20;;;;;;;;;;5100616;28;20060;-60
2022/05/04 06:47:36;;;;;;;8.43;2.25;;;;;;;;;;5076717;28;20078;-59
2022/05/04 06:50:03;;;;;;;8.93;1.88;;;;;;;;;;5081788;28;20045;-60
2022/05/04 06:52:30;;;;;;;7.57;1.75;;;;;;;;;;5079916;28;20048;-59
2022/05/04 06:54:57;;;;;;;13.45;2.50;;;;;;;;;;5082439;28;20040;-60
2022/05/04 06:57:23;;;;;;;5.90;1.77;;;;;;;;;;5083601;28;20071;-59
2022/05/04 06:59:49;;;;;;;6.32;1.60;;;;;;;;;;5082772;28;20087;-59
2022/05/04 07:02:15;;;;;;;14.82;2.53;;;;;;;;;;5084291;28;20079;-60
2022/05/04 07:04:41;;;;;;;11.30;1.40;;;;;;;;;;5084242;28;20053;-59
2022/05/04 07:07:08;;;;;;;8.35;1.73;;;;;;;;;;5084717;28;20048;-62
2022/05/04 07:09:34;;;;;;;6.80;1.85;;;;;;;;;;5075029;28;20040;-61
2022/05/04 07:12:00;;;;;;;8.35;2.00;;;;;;;;;;5084181;28;20041;-60
2022/05/04 07:14:26;;;;;;;10.73;2.33;;;;;;;;;;5079341;28;20071;-59
2022/05/04 07:16:52;;;;;;;6.32;1.80;;;;;;;;;;5082090;28;20045;-59
2022/05/04 07:19:19;;;;;;;7.03;1.73;;;;;;;;;;5080168;28;20037;-59
2022/05/04 07:21:45;;;;;;;7.70;1.92;;;;;;;;;;5114204;28;20097;-60
2022/05/04 07:24:11;;;;;;;9.35;1.90;;;;;;;;;;5082781;28;20110;-60
2022/05/04 07:26:38;;;;;;;9.75;1.80;;;;;;;;;;5076575;28;20061;-60
2022/05/04 07:29:04;;;;;;;8.77;2.55;;;;;;;;;;5074952;28;20040;-59
2022/05/04 07:31:31;;;;;;;7.57;1.45;;;;;;;;;;5083833;28;20052;-59
2022/05/04 07:33:57;;;;;;;7.43;1.98;;;;;;;;;;5076420;28;20126;-59
2022/05/04 07:36:23;;;;;;;8.60;1.58;;;;;;;;;;5082921;28;20107;-59
2022/05/04 07:38:49;;;;;;;12.48;1.92;;;;;;;;;;5076159;28;20036;-59
2022/05/04 07:44:00;;;;;;;8.82;2.13;;;;;;;;;;5065094;28;20079;-63
2022/05/04 07:46:29;;;;;;;12.63;2.83;;;;;;;;;;5068209;28;20117;-60
2022/05/04 07:48:58;;;;;;;8.43;1.73;;;;;;;;;;5073827;28;20056;-60
2022/05/04 07:51:24;;;;;;;6.28;2.15;;;;;;;;;;5088088;28;20041;-60
2022/05/04 07:53:51;;;;;;;8.30;2.08;;;;;;;;;;5087126;28;20051;-61
2022/05/04 07:56:17;;;;;;;10.35;1.73;;;;;;;;;;5077349;28;20044;-60
2022/05/04 07:58:43;;;;;;;10.77;2.08;;;;;;;;;;5086755;28;20046;-60
2022/05/04 08:06:39;;;;;;;11.32;2.33;;;;;;;;;;5085574;28;20048;-59
2022/05/04 08:09:05;;;;;;;6.97;1.95;;;;;;;;;;5076019;28;20520;-59
2022/05/04 08:11:31;;;;;;;11.95;1.95;;;;;;;;;;5079689;28;20044;-60
2022/05/04 08:13:58;;;;;;;8.38;2.28;;;;;;;;;;5087533;28;20123;-60
2022/05/04 08:16:24;;;;;;;7.93;1.67;;;;;;;;;;5087407;28;20052;-59
2022/05/04 08:18:50;;;;;;;11.85;1.80;;;;;;;;;;5087089;28;20040;-60
2022/05/04 08:21:16;;;;;;;13.73;1.75;;;;;;;;;;5085565;28;20068;-60
2022/05/04 08:23:42;;;;;;;8.07;2.05;;;;;;;;;;5087211;28;20188;-60
2022/05/04 08:26:12;;;;;;;5.57;1.75;;;;;;;;;;5077787;28;20049;-60
2022/05/04 08:28:39;;;;;;;8.88;2.10;;;;;;;;;;5076807;28;20048;-60
2022/05/04 08:31:05;;;;;;;10.30;2.10;;;;;;;;;;5084881;28;20071;-59
2022/05/04 08:33:32;;;;;;;10.65;2.40;;;;;;;;;;5086663;28;20041;-59
2022/05/04 08:35:58;;;;;;;6.70;1.55;;;;;;;;;;5087120;28;20096;-59
2022/05/04 08:38:24;;;;;;;5.93;1.88;;;;;;;;;;5086886;28;20047;-60
2022/05/04 08:40:52;;;;;;;10.18;2.95;;;;;;;;;;5087044;28;20580;-60
2022/05/04 08:43:20;;;;;;;12.18;2.22;;;;;;;;;;5086263;28;20124;-60
2022/05/04 08:45:51;;;;;;;4.13;1.80;;;;;;;;;;5087029;28;20067;-62
2022/05/04 08:48:18;;;;;;;8.88;2.33;;;;;;;;;;5086992;28;20044;-60
2022/05/04 08:50:44;;;;;;;8.30;1.77;;;;;;;;;;5085721;28;20044;-60
2022/05/04 08:53:10;;;;;;;9.20;2.40;;;;;;;;;;5085712;28;20100;-60
2022/05/04 08:55:40;;;;;;;10.90;2.45;;;;;;;;;;5085722;28;20053;-60
2022/05/04 08:58:07;;;;;;;12.77;2.58;;;;;;;;;;5086413;28;20036;-60
2022/05/04 09:00:33;;;;;;;10.98;2.13;;;;;;;;;;5086170;28;20041;-59
2022/05/04 09:03:00;;;;;;;8.23;2.40;;;;;;;;;;5079642;28;20127;-60
2022/05/04 09:05:27;;;;;;;9.13;1.85;;;;;;;;;;5074026;28;20045;-60
2022/05/04 09:07:58;;;;;;;11.90;2.25;;;;;;;;;;5083744;28;20055;-60
2022/05/04 09:10:24;;;;;;;9.85;2.45;;;;;;;;;;5083070;28;20048;-59
2022/05/04 09:12:50;;;;;;;8.48;2.00;;;;;;;;;;5086327;28;20459;-60
2022/05/04 09:15:17;;;;;;;7.57;2.22;;;;;;;;;;5086119;28;20407;-61
2022/05/04 09:17:43;;;;;;;9.85;2.13;;;;;;;;;;5086250;28;20048;-61
2022/05/04 09:22:55;;;;;;;6.63;1.75;;;;;;;;;;5086548;28;20104;-61
2022/05/04 09:25:25;;;;;;;6.75;1.77;;;;;;;;;;5085844;28;20037;-59
2022/05/04 09:27:52;;;;;;;5.50;1.58;;;;;;;;;;5086100;28;20048;-59
2022/05/04 09:30:23;;;;;;;8.95;1.90;;;;;;;;;;5085575;28;20048;-60
2022/05/04 09:32:50;;;;;;;5.38;1.83;;;;;;;;;;5086386;28;20045;-60
2022/05/04 09:35:16;;;;;;;8.88;2.30;;;;;;;;;;5085810;28;20052;-60
2022/05/04 09:46:04;;;;;;;11.65;2.05;;;;;;;;;;5085637;28;20048;-59
2022/05/04 09:48:31;;;;;;;6.78;2.70;;;;;;;;;;5072493;28;20412;-59
2022/05/04 09:50:58;;;;;;;6.93;2.13;;;;;;;;;;5085270;28;20083;-62
2022/05/04 09:53:27;;;;;;;6.28;1.77;;;;;;;;;;5085626;28;20045;-59
2022/05/04 09:55:55;;;;;;;6.97;1.60;;;;;;;;;;5085498;28;20504;-61
2022/05/04 09:58:23;;;;;;;5.53;2.00;;;;;;;;;;5085109;28;20052;-60
2022/05/04 10:00:51;;;;;;;6.13;1.80;;;;;;;;;;5082777;28;20074;-59
2022/05/04 10:03:19;;;;;;;6.00;1.83;;;;;;;;;;5078778;28;20056;-59
2022/05/04 10:05:46;;;;;;;8.13;2.15;;;;;;;;;;5079960;28;20100;-60
2022/05/04 10:08:12;;;;;;;8.77;1.98;;;;;;;;;;5077312;28;20100;-59
2022/05/04 10:10:39;;;;;;;9.73;2.83;;;;;;;;;;5083844;28;20152;-60
2022/05/04 10:13:06;;;;;;;10.20;1.88;;;;;;;;;;5085437;28;20095;-60
2022/05/04 10:15:34;;;;;;;9.35;2.00;;;;;;;;;;5085131;28;20122;-60
2022/05/04 10:18:07;;;;;;;7.20;1.80;;;;;;;;;;5081191;28;20049;-60
2022/05/04 10:20:39;;;;;;;8.05;1.80;;;;;;;;;;5079218;28;20133;-59
2022/05/04 10:23:08;;;;;;;6.88;2.20;;;;;;;;;;5074146;28;20127;-59
2022/05/04 10:25:35;;;;;;;8.05;1.58;;;;;;;;;;5065373;28;20072;-59
2022/05/04 10:28:08;;;;;;;4.20;1.67;;;;;;;;;;5068104;28;20056;-60
2022/05/04 10:30:34;;;;;;;7.25;1.85;;;;;;;;;;5085050;28;20289;-60
2022/05/04 10:33:09;;;;;;;5.10;1.60;;;;;;;;;;5083688;28;20119;-59
2022/05/04 10:35:38;;;;;;;6.75;2.40;;;;;;;;;;5085048;28;20059;-60
2022/05/04 10:38:11;;;;;;;7.55;2.00;;;;;;;;;;5084492;28;20420;-60
2022/05/04 10:40:44;;;;;;;9.88;1.75;;;;;;;;;;5085103;28;20174;-60
2022/05/04 10:43:12;;;;;;;9.38;2.25;;;;;;;;;;5084987;28;20044;-60
2022/05/04 10:45:39;;;;;;;3.60;1.50;;;;;;;;;;5084814;28;20547;-59
2022/05/04 10:48:15;;;;;;;5.55;2.00;;;;;;;;;;5083149;28;20549;-60
2022/05/04 10:50:49;;;;;;;4.72;1.55;;;;;;;;;;5084892;28;20072;-60
2022/05/04 10:53:22;;;;;;;8.57;1.63;;;;;;;;;;5084801;28;20060;-59
2022/05/04 10:55:55;;;;;;;10.55;1.85;;;;;;;;;;5083848;28;20047;-59
2022/05/04 10:58:38;;;;;;;8.25;2.03;;;;;;;;;;5083560;28;20067;-59
2022/05/04 11:01:12;;;;;;;11.60;1.73;;;;;;;;;;5083843;28;20092;-59
2022/05/04 11:03:49;;;;;;;4.47;1.95;;;;;;;;;;5084553;28;20048;-60
2022/05/04 11:06:22;;;;;;;7.72;1.73;;;;;;;;;;5084638;28;20049;-59
2022/05/04 11:08:48;;;;;;;7.63;1.52;;;;;;;;;;5084601;28;20045;-60
2022/05/04 11:11:15;;;;;;;6.82;2.03;;;;;;;;;;5074903;28;20059;-61
2022/05/04 11:13:43;;;;;;;10.10;2.45;;;;;;;;;;5078768;28;20040;-66
2022/05/04 11:16:10;;;;;;;9.85;1.98;;;;;;;;;;5084660;28;20076;-66
2022/05/04 11:18:36;;;;;;;6.70;2.08;;;;;;;;;;5083611;28;20497;-66
2022/05/04 11:21:05;;;;;;;7.53;1.90;;;;;;;;;;5075745;28;20146;-66
2022/05/04 11:23:32;;;;;;;8.93;2.08;;;;;;;;;;5112751;28;20056;-65
2022/05/04 11:25:58;;;;;;;8.40;1.90;;;;;;;;;;5083303;28;20052;-65
2022/05/04 11:28:24;;;;;;;7.07;1.77;;;;;;;;;;5084614;28;20089;-66
2022/05/04 11:30:55;;;;;;;6.95;1.70;;;;;;;;;;5084571;28;20055;-65
2022/05/04 11:33:21;;;;;;;9.63;2.03;;;;;;;;;;5078217;28;20037;-64
2022/05/04 11:35:54;;;;;;;6.38;1.48;;;;;;;;;;5084347;28;20044;-66
2022/05/04 11:38:21;;;;;;;5.97;1.70;;;;;;;;;;5084543;28;20048;-65
2022/05/04 11:40:48;;;;;;;8.13;1.70;;;;;;;;;;5084366;28;20106;-64
2022/05/04 11:43:27;;;;;;;7.90;1.85;;;;;;;;;;5083315;28;20421;-65
2022/05/04 11:45:54;;;;;;;6.13;1.90;;;;;;;;;;5084199;28;20060;-65
2022/05/04 11:48:21;;;;;;;6.72;1.95;;;;;;;;;;5084037;28;20076;-64
2022/05/04 11:50:48;;;;;;;4.57;1.48;;;;;;;;;;5084052;28;20182;-65
2022/05/04 11:53:14;;;;;;;6.25;1.60;;;;;;;;;;5067488;28;20056;-65
2022/05/04 11:55:40;;;;;;;8.10;2.00;;;;;;;;;;5064273;28;20464;-64
2022/05/04 11:58:10;;;;;;;6.20;2.13;;;;;;;;;;5064199;28;20049;-65
2022/05/04 12:00:37;;;;;;;4.20;1.50;;;;;;;;;;5078072;28;20470;-65
2022/05/04 12:03:06;;;;;;;8.00;2.00;;;;;;;;;;5083459;28;20051;-65
2022/05/04 12:05:37;;;;;;;7.10;2.15;;;;;;;;;;5082973;28;20128;-66
2022/05/04 12:08:07;;;;;;;7.78;2.17;;;;;;;;;;5084270;28;20092;-65
2022/05/04 12:10:34;;;;;;;4.18;1.70;;;;;;;;;;5082169;28;20511;-67
2022/05/04 12:13:01;;;;;;;7.25;2.20;;;;;;;;;;5083694;28;20048;-67
2022/05/04 12:15:28;;;;;;;4.07;1.90;;;;;;;;;;5083058;28;20044;-66
2022/05/04 12:17:58;;;;;;;7.30;2.15;;;;;;;;;;5081527;28;20053;-66
2022/05/04 12:20:25;;;;;;;5.75;2.20;;;;;;;;;;5081441;28;20484;-66
2022/05/04 12:22:51;;;;;;;7.67;1.73;;;;;;;;;;5083942;28;20037;-67
2022/05/04 12:25:20;;;;;;;7.50;1.92;;;;;;;;;;5083061;28;20414;-67
2022/05/04 12:27:46;;;;;;;8.25;1.95;;;;;;;;;;5083505;28;20053;-67
2022/05/04 12:33:10;;;;;;;4.70;1.92;;;;;;;;;;5076668;28;20141;-67
2022/05/04 12:35:37;;;;;;;6.15;1.95;;;;;;;;;;5076060;28;20055;-67
2022/05/04 12:38:03;;;;;;;10.57;2.55;;;;;;;;;;5087303;28;20044;-67
2022/05/04 12:40:34;;;;;;;5.95;2.20;;;;;;;;;;5087046;28;20045;-68
2022/05/04 12:43:00;;;;;;;9.68;2.85;;;;;;;;;;5087231;28;20446;-67
2022/05/04 12:45:27;;;;;;;6.00;1.67;;;;;;;;;;5079212;28;20064;-66
2022/05/04 12:47:57;;;;;;;5.20;2.00;;;;;;;;;;5086794;28;20044;-67
2022/05/04 12:50:25;;;;;;;6.13;1.85;;;;;;;;;;5086686;28;20041;-67
2022/05/04 12:52:51;;;;;;;8.38;1.85;;;;;;;;;;5086219;28;20108;-67
2022/05/04 12:55:18;;;;;;;9.43;1.52;;;;;;;;;;5076249;28;20052;-66
2022/05/04 12:57:44;;;;;;;5.90;1.60;;;;;;;;;;5086911;28;20049;-67
2022/05/04 13:00:12;;;;;;;7.50;2.00;;;;;;;;;;5083573;28;20135;-67
2022/05/04 13:02:42;;;;;;;5.22;1.85;;;;;;;;;;5086577;28;20303;-67
2022/05/04 13:05:09;;;;;;;5.30;1.85;;;;;;;;;;5068385;28;20053;-67
2022/05/04 13:07:36;;;;;;;6.65;2.17;;;;;;;;;;5084831;28;20108;-67
2022/05/04 13:10:05;;;;;;;7.47;2.47;;;;;;;;;;5076267;28;20135;-68
2022/05/04 13:12:31;;;;;;;5.50;1.95;;;;;;;;;;5065634;28;20057;-69
2022/05/04 13:14:57;;;;;;;9.05;2.33;;;;;;;;;;5082293;28;20087;-68
2022/05/04 13:17:23;;;;;;;10.63;2.17;;;;;;;;;;5065322;28;20116;-67
2022/05/04 13:19:49;;;;;;;5.05;1.85;;;;;;;;;;5074163;28;20289;-67
2022/05/04 13:22:15;;;;;;;5.47;1.80;;;;;;;;;;5086411;28;20049;-67
2022/05/04 13:24:42;;;;;;;7.35;1.95;;;;;;;;;;5086341;28;20052;-67
2022/05/04 13:27:09;;;;;;;5.70;2.03;;;;;;;;;;5086516;28;20032;-67
2022/05/04 13:29:35;;;;;;;5.68;1.73;;;;;;;;;;5085099;28;20044;-67
2022/05/04 13:32:03;;;;;;;6.57;2.05;;;;;;;;;;5084846;28;20055;-66
2022/05/04 13:34:29;;;;;;;7.30;2.13;;;;;;;;;;5082264;28;20048;-68
2022/05/04 13:36:55;;;;;;;3.25;1.65;;;;;;;;;;5082458;28;20063;-67
2022/05/04 13:39:21;;;;;;;6.05;2.00;;;;;;;;;;5086263;28;20231;-67
2022/05/04 13:41:48;;;;;;;6.03;1.85;;;;;;;;;;5085233;28;20044;-66
2022/05/04 13:44:14;;;;;;;7.22;1.85;;;;;;;;;;5085442;28;20048;-67
2022/05/04 13:46:40;;;;;;;7.75;2.30;;;;;;;;;;5083163;28;20124;-66
2022/05/04 13:49:06;;;;;;;6.57;2.15;;;;;;;;;;5086101;28;20109;-67
2022/05/04 13:54:17;;;;;;;6.15;1.73;;;;;;;;;;5084796;28;20048;-67
2022/05/04 13:56:43;;;;;;;7.70;2.10;;;;;;;;;;5085766;28;20055;-67
2022/05/04 13:59:09;;;;;;;3.30;1.50;;;;;;;;;;5086107;28;20120;-65
2022/05/04 14:01:35;;;;;;;5.60;2.00;;;;;;;;;;5085587;28;20132;-66
2022/05/04 14:04:01;;;;;;;5.27;1.80;;;;;;;;;;5085356;28;20104;-67
2022/05/04 14:06:28;;;;;;;7.80;2.38;;;;;;;;;;5085321;28;20382;-67
2022/05/04 14:08:54;;;;;;;7.90;2.55;;;;;;;;;;5085605;28;20057;-67
2022/05/04 14:11:22;;;;;;;6.30;1.73;;;;;;;;;;5085474;28;20052;-66
2022/05/04 14:13:49;;;;;;;8.23;2.30;;;;;;;;;;5118145;28;20461;-67
2022/05/04 14:16:16;;;;;;;6.20;1.92;;;;;;;;;;5067172;28;20052;-66
2022/05/04 14:18:42;;;;;;;9.83;2.03;;;;;;;;;;5065378;28;20134;-67
2022/05/04 14:21:08;;;;;;;4.53;1.60;;;;;;;;;;5080488;28;20056;-67
2022/05/04 14:23:35;;;;;;;6.80;1.88;;;;;;;;;;5077664;28;20294;-67
2022/05/04 14:26:01;;;;;;;5.95;2.03;;;;;;;;;;5084325;28;20059;-67
2022/05/04 14:28:28;;;;;;;5.50;1.77;;;;;;;;;;5084954;28;20324;-67
2022/05/04 14:31:01;;;;;;;7.50;2.00;;;;;;;;;;5083954;28;20103;-67
2022/05/04 14:33:27;;;;;;;3.78;1.80;;;;;;;;;;5079415;28;20066;-66
2022/05/04 14:35:53;;;;;;;7.63;2.47;;;;;;;;;;5075265;28;20072;-66
2022/05/04 14:38:20;;;;;;;8.45;2.10;;;;;;;;;;5084472;28;20056;-67
2022/05/04 14:40:46;;;;;;;7.72;2.13;;;;;;;;;;5084582;28;20480;-67
2022/05/04 14:43:12;;;;;;;6.80;2.00;;;;;;;;;;5084869;28;20075;-66
2022/05/04 14:45:38;;;;;;;6.77;2.20;;;;;;;;;;5080534;28;20061;-67
2022/05/04 14:48:05;;;;;;;9.47;2.30;;;;;;;;;;5071425;28;20041;-66
2022/05/04 14:50:31;;;;;;;7.40;2.17;;;;;;;;;;5071209;28;20299;-66
2022/05/04 14:52:57;;;;;;;6.55;2.22;;;;;;;;;;5066432;28;20041;-67
2022/05/04 14:55:24;;;;;;;6.70;1.92;;;;;;;;;;5076395;28;20105;-66
2022/05/04 14:57:50;;;;;;;5.95;2.15;;;;;;;;;;5078855;28;20069;-66
2022/05/04 15:00:16;;;;;;;10.88;3.40;;;;;;;;;;5084698;28;20102;-67
2022/05/04 15:05:27;;;;;;;5.07;2.10;;;;;;;;;;5084538;28;20131;-67
2022/05/04 15:07:55;;;;;;;5.30;1.98;;;;;;;;;;5101252;28;20127;-67
2022/05/04 15:10:21;;;;;;;4.97;1.45;;;;;;;;;;5079603;28;20052;-67
2022/05/04 15:12:51;;;;;;;6.63;2.00;;;;;;;;;;5075241;28;20076;-66
2022/05/04 15:15:17;;;;;;;7.25;2.33;;;;;;;;;;5064506;28;20102;-66
2022/05/04 15:17:44;;;;;;;5.43;1.77;;;;;;;;;;5064506;28;20056;-66
2022/05/04 15:20:10;;;;;;;7.07;1.97;;;;;;;;;;5071931;28;20484;-67